Time;durP1;ratioP1;P1;durP2;ratioP2;P2;SDS_P1;SDS_P2;PMS_P1;PMS_P2;Temp;Humidity;BMP_temperature;BMP_pressure;BME280_temperature;BME280_humidity;BME280_pressure;Samples;Min_cycle;Max_cycle;Signal;HPM_P1;HPM_P2
2023/09/28 00:03:12;;;;;;;10.35;3.20;;;;;;;22.37;100.00;100803.09;20866032;28;20063;-71
2023/09/28 00:13:35;;;;;;;11.82;3.13;;;;;;;22.32;100.00;100795.16;20880053;28;20520;-70
2023/09/28 00:23:59;;;;;;;8.20;2.70;;;;;;;22.36;100.00;100801.34;20861879;28;20056;-70
2023/09/28 00:34:22;;;;;;;9.27;3.20;;;;;;;22.43;100.00;100802.91;20928910;28;20485;-71
2023/09/28 00:44:46;;;;;;;8.90;2.70;;;;;;;22.49;100.00;100784.75;20861241;28;20507;-71
2023/09/28 00:55:09;;;;;;;7.95;2.90;;;;;;;22.48;100.00;100776.72;20872265;28;20061;-71
2023/09/28 01:05:34;;;;;;;9.73;2.55;;;;;;;22.55;100.00;100762.13;20888040;28;20568;-70
2023/09/28 01:15:56;;;;;;;8.88;2.60;;;;;;;22.64;100.00;100768.06;20855371;28;20050;-70
2023/09/28 01:26:21;;;;;;;9.18;2.65;;;;;;;22.70;100.00;100760.72;20847850;28;20053;-70
2023/09/28 01:36:43;;;;;;;8.90;2.65;;;;;;;22.68;100.00;100771.53;20841010;28;20099;-70
2023/09/28 01:47:07;;;;;;;8.50;2.05;;;;;;;22.62;100.00;100775.31;20855774;28;20037;-70
2023/09/28 01:57:31;;;;;;;7.80;2.47;;;;;;;22.62;100.00;100793.28;20845776;28;20140;-70
2023/09/28 02:07:56;;;;;;;10.15;2.47;;;;;;;22.59;100.00;100798.75;20795616;28;20037;-70
2023/09/28 02:18:19;;;;;;;6.32;2.30;;;;;;;22.49;100.00;100814.34;20845063;28;20057;-70
2023/09/28 02:28:43;;;;;;;6.82;2.10;;;;;;;22.37;100.00;100836.25;20808258;28;20045;-70
2023/09/28 02:39:12;;;;;;;7.82;2.60;;;;;;;21.99;100.00;100850.88;20792362;28;20406;-70
2023/09/28 02:49:37;;;;;;;7.07;2.35;;;;;;;21.75;100.00;100863.19;20861899;28;20073;-70
2023/09/28 03:00:00;;;;;;;6.50;2.22;;;;;;;21.21;100.00;100875.44;20776939;28;20045;-70
2023/09/28 03:10:26;;;;;;;10.07;2.78;;;;;;;21.09;100.00;100873.94;20852141;28;20044;-70
2023/09/28 03:20:51;;;;;;;10.23;2.57;;;;;;;21.17;100.00;100881.81;20877831;28;20544;-70
2023/09/28 03:31:15;;;;;;;6.30;2.70;;;;;;;21.22;100.00;100887.97;20879579;28;20107;-71
2023/09/28 03:41:39;;;;;;;6.78;3.05;;;;;;;21.07;100.00;100908.88;20865577;28;20103;-70
2023/09/28 03:52:04;;;;;;;7.53;2.83;;;;;;;21.09;100.00;100920.47;20866643;28;20543;-70
2023/09/28 04:02:28;;;;;;;5.93;2.40;;;;;;;21.08;100.00;100923.19;20873260;28;20128;-70
2023/09/28 04:12:52;;;;;;;5.22;2.60;;;;;;;20.89;100.00;100930.81;20882140;28;20045;-70
2023/09/28 04:23:15;;;;;;;9.38;2.50;;;;;;;20.81;100.00;100939.94;20895984;28;20110;-70
2023/09/28 04:33:39;;;;;;;8.40;2.78;;;;;;;20.97;100.00;100949.41;20902280;28;20049;-70
2023/09/28 04:44:01;;;;;;;8.55;4.82;;;;;;;21.47;100.00;100964.28;20862339;28;20157;-70
2023/09/28 04:54:26;;;;;;;8.75;3.22;;;;;;;22.22;100.00;100974.78;20875532;28;20041;-70
2023/09/28 05:04:49;;;;;;;7.00;2.80;;;;;;;22.01;100.00;100982.56;20878919;28;20056;-70
2023/09/28 05:15:15;;;;;;;11.07;5.75;;;;;;;22.21;100.00;100985.59;20871797;28;20131;-70
2023/09/28 05:25:37;;;;;;;11.70;3.97;;;;;;;23.20;100.00;100993.34;20893752;28;20132;-70
2023/09/28 05:36:02;;;;;;;6.53;1.90;;;;;;;24.02;100.00;100993.22;20888034;28;20124;-70
2023/09/28 05:46:24;;;;;;;8.20;2.22;;;;;;;24.68;100.00;101002.47;20888134;28;20128;-71
2023/09/28 05:56:48;;;;;;;9.60;2.75;;;;;;;25.42;100.00;101005.75;20886047;28;20118;-71
2023/09/28 06:07:11;;;;;;;6.75;2.10;;;;;;;25.06;100.00;101012.66;20884488;28;20044;-70
2023/09/28 06:17:35;;;;;;;7.97;2.20;;;;;;;24.71;100.00;101032.03;20873038;28;20528;-71
2023/09/28 06:27:58;;;;;;;6.90;1.88;;;;;;;24.83;100.00;101039.66;20851271;28;20041;-71
2023/09/28 06:38:22;;;;;;;6.70;3.40;;;;;;;25.65;100.00;101041.81;20885468;28;20501;-70
2023/09/28 06:48:45;;;;;;;5.82;2.10;;;;;;;26.90;100.00;101051.53;20888290;28;20098;-70
2023/09/28 06:59:09;;;;;;;6.75;1.55;;;;;;;28.26;100.00;101045.59;20896734;28;20143;-70
2023/09/28 07:09:32;;;;;;;5.32;1.40;;;;;;;29.05;100.00;101046.69;20921538;28;20051;-70
2023/09/28 07:19:57;;;;;;;5.15;1.38;;;;;;;29.61;100.00;101057.06;20879659;28;20095;-70
2023/09/28 07:30:20;;;;;;;5.37;1.20;;;;;;;30.15;93.15;101057.47;20890465;28;20061;-70
2023/09/28 07:40:44;;;;;;;6.53;1.50;;;;;;;30.53;84.74;101057.84;20883587;28;20055;-70
2023/09/28 07:51:07;;;;;;;5.80;2.00;;;;;;;30.94;78.10;101059.81;20886413;28;20057;-69
2023/09/28 08:01:38;;;;;;;5.05;1.70;;;;;;;31.06;75.03;101068.09;20833691;28;20493;-70
2023/09/28 08:12:00;;;;;;;4.30;1.20;;;;;;;30.97;76.79;101062.34;20875045;28;20575;-70
2023/09/28 08:22:24;;;;;;;6.20;1.30;;;;;;;30.97;79.23;101067.81;20897796;28;20045;-70
2023/09/28 08:32:47;;;;;;;5.00;1.80;;;;;;;31.17;76.42;101062.84;20866314;28;20439;-70
2023/09/28 08:43:18;;;;;;;5.78;1.60;;;;;;;31.11;72.30;101070.56;20912457;28;20072;-70
2023/09/28 08:53:43;;;;;;;5.85;1.20;;;;;;;31.16;69.84;101096.56;20906156;28;20063;-70
2023/09/28 09:04:09;;;;;;;5.20;1.40;;;;;;;31.60;70.33;101106.44;20919202;28;20095;-70
2023/09/28 09:14:31;;;;;;;4.55;1.27;;;;;;;31.23;71.35;101114.28;20863186;28;20045;-70
2023/09/28 09:24:58;;;;;;;6.15;1.20;;;;;;;31.27;69.72;101106.75;20889056;28;20593;-71
2023/09/28 09:35:27;;;;;;;6.85;1.65;;;;;;;31.49;69.04;101089.84;20905036;28;20049;-70
2023/09/28 09:45:51;;;;;;;9.63;1.60;;;;;;;31.63;67.92;101100.78;20919151;28;20052;-70
2023/09/28 09:56:15;;;;;;;10.23;3.03;;;;;;;31.89;65.37;101079.91;20892588;28;20404;-70
2023/09/28 10:06:42;;;;;;;5.95;1.48;;;;;;;32.25;61.75;101079.22;20863877;28;20819;-70
2023/09/28 10:17:05;;;;;;;6.47;1.80;;;;;;;31.90;60.71;101070.72;20868099;28;20164;-70
2023/09/28 10:27:32;;;;;;;6.50;1.58;;;;;;;31.16;63.87;101062.94;20900795;28;20127;-70
2023/09/28 10:38:22;;;;;;;5.80;1.50;;;;;;;30.77;70.44;101056.31;20915606;28;20061;-70
2023/09/28 10:48:48;;;;;;;6.82;1.40;;;;;;;30.86;72.34;101049.38;20909743;28;20300;-69
2023/09/28 10:59:12;;;;;;;7.60;1.40;;;;;;;31.30;72.99;101052.00;20884207;28;20554;-70
2023/09/28 11:09:40;;;;;;;3.67;1.30;;;;;;;31.57;70.34;101062.94;20877398;28;20052;-70
2023/09/28 11:20:03;;;;;;;7.53;1.60;;;;;;;31.42;68.06;101055.75;20931655;28;20684;-70
2023/09/28 11:30:28;;;;;;;7.18;1.85;;;;;;;30.82;69.72;101062.34;20903689;28;20041;-71
2023/09/28 11:40:54;;;;;;;9.43;1.63;;;;;;;30.56;71.24;101041.31;20881535;28;20063;-71
2023/09/28 11:51:18;;;;;;;7.90;2.20;;;;;;;30.56;72.39;101030.41;20907941;28;20051;-70
2023/09/28 12:01:41;;;;;;;5.40;1.90;;;;;;;30.37;75.39;101029.78;20883257;28;20052;-70
2023/09/28 12:12:06;;;;;;;5.43;1.60;;;;;;;30.33;77.70;101022.75;20885642;28;20806;-70
2023/09/28 12:22:29;;;;;;;5.47;1.92;;;;;;;30.12;80.80;101018.66;20876305;28;20044;-70
2023/09/28 12:32:55;;;;;;;7.93;1.70;;;;;;;29.77;84.77;101023.47;20879881;28;20045;-70
2023/09/28 12:43:18;;;;;;;4.38;1.60;;;;;;;29.75;87.25;101019.97;20865775;28;20106;-70
2023/09/28 12:53:42;;;;;;;7.00;2.38;;;;;;;29.60;90.35;101008.19;20872654;28;20695;-70
2023/09/28 13:04:06;;;;;;;5.80;1.80;;;;;;;28.94;97.74;101000.22;20877171;28;20048;-70
2023/09/28 13:14:31;;;;;;;6.75;1.70;;;;;;;28.70;100.00;101004.25;20863947;28;20053;-70
2023/09/28 13:24:54;;;;;;;8.73;1.80;;;;;;;28.40;100.00;100994.13;20878790;28;20131;-70
2023/09/28 13:35:19;;;;;;;4.75;2.03;;;;;;;28.37;100.00;101005.16;20884408;28;20599;-70
2023/09/28 13:45:42;;;;;;;9.65;2.22;;;;;;;28.38;100.00;101006.91;20864310;28;20164;-70
2023/09/28 13:56:07;;;;;;;8.35;2.58;;;;;;;28.42;100.00;101013.09;20880622;28;20057;-69
2023/09/28 14:06:30;;;;;;;8.57;2.10;;;;;;;28.49;100.00;101014.47;20901006;28;20048;-70
2023/09/28 14:16:54;;;;;;;8.80;2.63;;;;;;;28.44;100.00;101028.31;20885130;28;20053;-70
2023/09/28 14:27:17;;;;;;;9.50;2.40;;;;;;;28.47;100.00;101021.84;20873941;28;20045;-69
2023/09/28 14:37:41;;;;;;;15.90;2.63;;;;;;;28.41;100.00;101030.34;20889755;28;20273;-70
2023/09/28 14:48:04;;;;;;;29.83;3.20;;;;;;;27.93;94.51;101023.78;20876886;28;20512;-70
2023/09/28 14:58:29;;;;;;;18.77;2.83;;;;;;;27.70;94.49;101029.50;20888561;28;20106;-69
2023/09/28 15:08:52;;;;;;;11.15;2.80;;;;;;;27.60;100.00;101042.69;20872750;28;20094;-70
2023/09/28 15:19:17;;;;;;;8.45;1.95;;;;;;;27.49;100.00;101044.16;20878730;28;20085;-70
2023/09/28 15:29:39;;;;;;;12.07;3.25;;;;;;;27.32;100.00;101039.56;20884076;28;20047;-69
2023/09/28 15:40:04;;;;;;;9.30;3.30;;;;;;;27.18;100.00;101042.94;20896696;28;20053;-70
2023/09/28 15:50:27;;;;;;;8.88;3.20;;;;;;;27.01;100.00;101029.34;20895292;28;20051;-71
2023/09/28 16:00:52;;;;;;;10.10;3.35;;;;;;;26.70;100.00;101023.59;20893252;28;20435;-70
2023/09/28 16:11:16;;;;;;;7.68;2.65;;;;;;;26.32;100.00;101026.22;20892822;28;20045;-70
2023/09/28 16:21:40;;;;;;;8.05;2.42;;;;;;;26.13;100.00;101042.38;20880605;28;20045;-70
2023/09/28 16:32:02;;;;;;;9.77;2.70;;;;;;;26.03;100.00;101049.16;20880279;28;20459;-70
2023/09/28 16:42:27;;;;;;;11.98;2.90;;;;;;;25.87;100.00;101077.81;20861979;28;20057;-70
2023/09/28 16:52:49;;;;;;;15.73;2.67;;;;;;;25.73;100.00;101077.53;20890609;28;20068;-70
2023/09/28 17:03:14;;;;;;;17.05;2.72;;;;;;;25.86;100.00;101096.81;20891433;28;20049;-70
2023/09/28 17:13:36;;;;;;;14.38;2.60;;;;;;;25.91;100.00;101105.63;20913155;28;20136;-70
2023/09/28 17:24:01;;;;;;;10.77;2.22;;;;;;;25.86;100.00;101111.25;20910010;28;20082;-71
2023/09/28 17:34:24;;;;;;;10.60;2.17;;;;;;;25.72;100.00;101114.53;20881820;28;20055;-71
2023/09/28 17:44:48;;;;;;;14.63;4.57;;;;;;;25.71;100.00;101133.50;20914860;28;20040;-70
2023/09/28 17:55:11;;;;;;;16.90;3.90;;;;;;;25.45;100.00;101168.78;20878155;28;20064;-70
2023/09/28 18:05:37;;;;;;;13.20;3.17;;;;;;;25.33;100.00;101171.06;20909423;28;20386;-70
2023/09/28 18:16:00;;;;;;;10.80;3.45;;;;;;;25.22;100.00;101184.06;20898324;28;20057;-70
2023/09/28 18:26:27;;;;;;;15.88;3.53;;;;;;;25.02;100.00;101192.03;20892123;28;20048;-71
2023/09/28 18:36:50;;;;;;;16.38;3.65;;;;;;;24.78;100.00;101193.81;20883599;28;20048;-70
2023/09/28 18:47:15;;;;;;;14.75;3.53;;;;;;;24.75;100.00;101190.31;20897897;28;20098;-71
2023/09/28 18:57:39;;;;;;;9.25;2.88;;;;;;;24.66;100.00;101204.16;20892058;28;20122;-70
2023/09/28 19:08:06;;;;;;;11.50;4.25;;;;;;;24.56;100.00;101195.50;20886105;28;20049;-70
2023/09/28 19:18:28;;;;;;;14.68;3.35;;;;;;;24.43;100.00;101205.84;20888982;28;20057;-70
2023/09/28 19:28:54;;;;;;;12.10;3.58;;;;;;;24.36;100.00;101222.28;20879587;28;20048;-70
2023/09/28 19:39:19;;;;;;;15.07;3.55;;;;;;;24.25;100.00;101211.88;20875777;28;20184;-70
2023/09/28 19:49:44;;;;;;;13.82;3.28;;;;;;;24.20;100.00;101224.66;20883250;28;20459;-70
2023/09/28 20:00:10;;;;;;;15.35;3.17;;;;;;;24.27;100.00;101218.13;20838271;28;20049;-70
2023/09/28 20:10:35;;;;;;;10.40;2.72;;;;;;;24.24;100.00;101229.00;20884378;28;20056;-70
2023/09/28 20:20:57;;;;;;;9.50;3.13;;;;;;;24.18;100.00;101219.25;20894551;28;20556;-70
2023/09/28 20:31:21;;;;;;;11.90;3.03;;;;;;;24.13;100.00;101217.66;20882649;28;20049;-70
2023/09/28 20:41:44;;;;;;;12.18;3.38;;;;;;;24.04;100.00;101226.03;20821269;28;20057;-70
2023/09/28 20:52:09;;;;;;;9.32;2.95;;;;;;;23.90;100.00;101217.50;20881196;28;20055;-70
2023/09/28 21:02:32;;;;;;;12.93;3.35;;;;;;;23.80;100.00;101228.59;20882722;28;20052;-70
2023/09/28 21:12:56;;;;;;;12.85;3.20;;;;;;;23.66;100.00;101216.47;20864941;28;20064;-70
2023/09/28 21:23:19;;;;;;;13.70;3.00;;;;;;;23.60;100.00;101208.56;20873955;28;20084;-70
2023/09/28 21:33:43;;;;;;;9.65;2.92;;;;;;;23.45;100.00;101215.28;20880766;28;20076;-69
2023/09/28 21:44:07;;;;;;;11.18;3.20;;;;;;;23.32;100.00;101205.78;20896184;28;20045;-70
2023/09/28 21:54:32;;;;;;;12.30;3.05;;;;;;;23.23;100.00;101201.59;20892621;28;20130;-70
2023/09/28 22:04:55;;;;;;;14.43;3.70;;;;;;;23.14;100.00;101207.22;20893682;28;20107;-70
2023/09/28 22:15:21;;;;;;;16.42;3.47;;;;;;;22.89;100.00;101204.38;20906463;28;20053;-70
2023/09/28 22:25:43;;;;;;;9.60;3.38;;;;;;;22.93;100.00;101203.34;20901092;28;20068;-70
